titansupport.com alexa rank chart, titansupport.com alexa rank daily changes

titansupport.com alexa rank chart, titansupport.com alexa rank daily changes

titansupport.com
Actual rank:
550 762

RANK HISTORY

Date Rank Diff
2017/11/18 550 762 -9 744
2017/11/17 560 506 +14 005
2017/11/16 546 501 -2 791
2017/11/15 549 292 +7 221
2017/11/14 542 071 -34 107
2017/11/13 576 178 +192
2017/11/12 575 986 +695
2017/11/11 575 291 -7 383
2017/11/10 582 674 -14 963
2017/11/09 597 637 -5 177
2017/11/08 602 814 -4 894
2017/11/07 607 708 -505
2017/11/06 608 213 -19 957
2017/11/05 628 170 +12 136
2017/11/04 616 034 -16 225
2017/11/03 632 259 -2 242
2017/11/02 634 501 +7 653
2017/11/01 626 848 +16 074
2017/10/31 610 774 +20 994
2017/10/30 589 780 +56 030
2017/10/29 533 750 -34 919
2017/10/28 568 669 -13 241
2017/10/27 581 910 -13 237
2017/10/26 595 147 +3 891
2017/10/25 591 256 -20 665
2017/10/24 611 921 -20 281
2017/10/23 632 202 +10 640
2017/10/22 621 562 +29 118
2017/10/21 592 444 -1 530
2017/10/20 593 974 -21 780
2017/10/19 615 754 -20 284
2017/10/18 636 038 +1 905
2017/10/17 634 133 -55 580
2017/10/16 689 713 +11 609
2017/10/14 678 104 +28 708
2017/10/13 649 396 -31 371
2017/10/12 680 767 +2 268
2017/10/11 678 499 +31 389
2017/10/10 647 110 -25 379
2017/10/09 672 489 -27 991
2017/10/08 700 480 -26 387
2017/10/07 726 867 -2 613
2017/10/06 729 480 -32 407
2017/10/05 761 887 -29 500
2017/10/04 791 387 +3 338
2017/10/03 788 049 -42 030
2017/10/02 830 079 -36 730
2017/10/01 866 809 -9 518
2017/09/30 876 327

WIDGET FOR YOUR SITE

DOMAINS WITH THE NEAREST RANK

Domain Rank
gowdb.com 550 757
navettemarseilleaeroport.com 550 758
cvinfo.com 550 759
publicationslist.org 550 760
darchitectures.com 550 761
titansupport.com 550 762
miquan.com 550 763
wellontarget.com 550 764
scheduletoday.com 550 765
kinetica.com 550 766
eki-net.biz 550 767

DOMAINS WITH THE NEAREST RANK BY TLD .com

Domain Rank
elegantironworks.com 550 755
gowdb.com 550 757
navettemarseilleaeroport.com 550 758
cvinfo.com 550 759
darchitectures.com 550 761
titansupport.com 550 762
miquan.com 550 763
wellontarget.com 550 764
scheduletoday.com 550 765
kinetica.com 550 766
luma-institute.com 550 768